Date,TemperatureHighF,TemperatureAvgF,TemperatureLowF,DewpointHighF,DewpointAvgF,DewpointLowF,HumidityHigh,HumidityAvg,HumidityLow,PressureMaxIn,PressureMinIn,WindSpeedMaxMPH,WindSpeedAvgMPH,GustSpeedMaxMPH,PrecipitationSumIn
2013-1-1,36.7,31.9,20.7,13.3,5.1,-5.9,41,32,23,29.15,28.97,9,1,9,0.00
2013-1-2,28.4,22.2,15.4,2.5,-2.5,-6.4,40,33,26,29.29,29.12,7,0,8,0.00
2013-1-3,25.5,18.1,6.6,1.4,-6.9,-17.1,38,32,27,29.32,29.18,6,1,7,0.00
2013-1-4,36.0,29.9,23.9,10.5,5.4,1.4,43,35,27,29.18,29.06,8,1,9,0.00
2013-1-5,38.7,32.3,28.2,9.7,5.8,2.2,41,32,23,29.41,29.09,10,1,13,0.08
2013-1-6,40.3,34.0,29.5,15.6,11.8,7.9,49,40,29,29.35,29.12,5,0,6,0.04
2013-1-7,39.4,34.3,28.6,18.6,9.5,3.0,52,36,23,29.53,29.15,7,1,8,0.00
2013-1-8,41.7,34.3,27.1,16.3,11.6,5.7,53,39,29,29.53,29.47,5,0,7,0.00
2013-1-9,40.6,36.1,30.4,24.9,16.6,10.7,59,45,32,29.53,29.26,6,0,7,0.00
2013-1-10,42.1,37.5,33.8,16.5,7.2,1.5,41,28,20,29.68,29.32,9,2,11,0.00
2013-1-11,39.2,35.2,31.6,37.9,17.7,5.9,95,53,30,29.68,29.26,6,1,7,0.28
2013-1-12,43.0,40.6,38.7,42.2,39.8,37.1,97,97,95,29.32,29.23,5,0,7,0.08
2013-1-13,45.1,42.3,39.4,44.3,41.5,38.6,97,97,97,29.29,29.18,5,0,6,0.04
2013-1-14,53.2,44.4,34.0,52.4,35.0,11.6,97,74,33,29.44,29.09,7,0,8,0.00
2013-1-15,35.6,33.4,31.1,20.4,10.3,5.6,60,38,30,29.47,29.38,8,2,8,0.04
2013-1-16,33.3,31.1,28.9,29.4,25.1,5.6,89,80,31,29.38,28.97,6,0,6,0.00
2013-1-17,40.8,34.1,26.4,29.8,16.7,-0.1,89,52,29,29.23,29.03,7,1,8,0.24
2013-1-18,28.4,22.3,19.0,-0.1,-7.7,-12.5,33,26,22,29.59,29.18,8,1,10,0.00
2013-1-19,40.3,33.8,23.0,11.9,5.4,-7.6,40,30,24,29.53,29.06,7,0,8,0.00
2013-1-20,47.8,37.1,25.2,14.9,6.4,-8.8,44,29,18,29.15,28.82,9,1,10,0.00
2013-1-21,29.5,25.0,21.4,8.4,-3.6,-11.1,52,29,20,29.21,28.94,7,0,8,0.00
2013-1-22,22.1,16.3,9.0,6.1,-12.0,-20.5,51,27,23,29.26,28.94,8,1,11,0.00
2013-1-23,18.0,10.7,6.8,0.0,-13.3,-22.3,24,17,23,29.32,29.23,7,1,9,0.00
2013-1-24,18.9,11.6,5.5,0.0,-8.4,-18.6,24,13,23,29.44,29.23,11,2,15,0.00
2013-1-25,23.0,15.4,9.7,-8.5,-15.4,-19.9,28,23,22,29.50,29.23,4,0,7,0.00
2013-1-26,21.9,16.7,10.4,-0.4,-8.2,-14.6,50,34,22,29.44,29.15,9,2,10,0.00
2013-1-27,28.8,21.1,12.7,-2.7,-8.3,-13.8,45,27,21,29.62,29.44,7,1,9,0.00
2013-1-28,32.5,27.6,22.1,29.7,8.4,-10.9,89,49,22,29.59,29.12,6,0,6,0.00
2013-1-29,42.1,36.5,32.5,41.3,33.4,29.2,97,88,74,29.29,29.12,6,1,8,0.20
2013-1-30,52.2,35.8,-3.1,51.2,34.9,-3.7,97,97,91,29.26,28.53,6,0,8,0.12
2013-1-31,-3.1,-3.1,-3.1,-3.7,-3.7,-3.7,97,97,97,28.85,28.20,0,0,0,0.91
2013-2-1,-3.1,-3.1,-3.1,-3.7,-3.7,-3.7,97,97,97,29.29,28.82,0,0,0,0.00
2013-2-2,-3.1,-3.1,-3.1,-3.7,-3.7,-3.7,97,97,97,29.38,29.18,0,0,0,0.00
2013-2-3,-3.1,-3.1,-3.1,-3.7,-3.7,-3.7,97,97,97,29.18,28.91,0,0,0,0.00
2013-2-4,-3.1,-3.1,-3.1,-3.7,-3.7,-3.7,97,97,97,29.09,28.91,0,0,0,0.00
2013-2-5,-3.1,-3.1,-3.1,-3.7,-3.7,-3.7,97,97,97,29.12,29.03,0,0,0,0.00
2013-2-6,-3.1,-3.1,-3.1,-3.7,-3.7,-3.7,97,97,97,29.47,29.03,3,0,4,0.04
2013-2-7,-3.1,-3.1,-3.1,-3.7,-3.7,-3.7,97,97,97,29.62,29.44,4,0,4,0.00
2013-2-8,26.2,2.2,-3.1,22.6,1.2,-3.7,97,58,75,29.50,28.79,12,1,14,0.00
2013-2-9,26.6,22.8,14.7,18.7,0.1,-15.5,84,42,21,29.44,28.88,16,6,17,0.00
2013-2-10,32.5,22.3,12.6,-4.0,-10.5,-17.4,26,22,20,29.59,29.44,8,2,10,0.00
2013-2-11,39.7,34.4,26.2,38.1,26.2,-4.0,97,75,26,29.44,28.82,6,0,7,0.20
2013-2-12,40.6,36.5,34.0,35.7,16.2,6.6,97,48,26,29.09,28.85,7,1,9,0.00
2013-2-13,41.4,34.7,28.6,29.1,8.5,0.9,89,36,21,29.09,28.85,5,0,7,0.00
2013-2-14,40.6,33.7,26.6,29.0,15.4,2.4,91,52,21,29.15,28.85,5,0,7,0.08
2013-2-15,48.9,38.8,30.6,20.2,12.2,4.4,53,35,20,29.15,29.06,7,1,7,0.00
2013-2-16,35.6,30.8,25.7,29.3,10.1,-6.1,88,46,23,29.12,28.88,10,4,12,0.00
2013-2-17,29.8,21.9,13.6,-5.8,-10.8,-16.4,25,22,20,29.06,28.76,12,5,14,0.00
2013-2-18,30.6,22.3,13.3,-5.8,-10.7,-16.8,24,22,20,29.32,29.06,7,2,10,0.00
2013-2-19,42.4,33.5,24.4,35.7,14.0,-6.7,94,51,23,29.32,28.79,7,1,10,0.28
2013-2-20,33.8,28.4,21.7,23.7,-0.7,-9.1,66,29,20,29.06,28.82,12,2,12,0.00
2013-2-21,32.4,24.9,21.0,0.0,-4.3,-7.3,39,28,20,29.44,29.06,10,3,11,0.00
2013-2-22,37.4,29.3,20.8,12.7,4.7,-0.2,47,36,21,29.53,29.41,10,3,11,0.00
2013-2-23,37.8,34.6,32.7,35.7,27.7,12.7,97,78,43,29.41,28.97,12,3,12,0.04
2013-2-24,40.3,34.9,30.9,35.7,25.4,7.4,97,71,36,29.09,28.91,7,1,8,0.00
2013-2-25,41.2,35.0,28.0,10.6,7.7,2.9,42,32,21,29.38,29.09,8,1,9,0.00
2013-2-26,39.9,35.1,30.7,26.3,11.0,4.0,77,37,26,29.44,29.12,11,3,14,0.08
2013-2-27,42.6,38.0,32.7,41.8,36.6,26.3,97,95,77,29.12,28.67,17,3,19,0.83
2013-2-28,45.7,39.0,35.1,40.4,28.2,14.3,97,70,28,28.76,28.70,5,0,5,0.04
2013-3-1,42.4,36.5,32.2,31.8,17.8,7.9,95,51,25,28.91,28.73,8,2,9,0.00
2013-3-2,37.0,33.2,28.2,13.8,8.5,5.0,53,35,26,28.91,28.82,8,2,9,0.00
2013-3-3,36.9,29.9,26.2,13.6,5.7,-3.1,54,36,21,28.88,28.79,9,3,9,0.00
2013-3-4,39.7,31.3,25.5,5.2,1.6,-1.6,39,28,21,29.03,28.88,7,2,10,0.00
2013-3-5,42.8,35.0,27.5,8.7,6.3,2.6,41,30,20,29.18,29.03,10,2,10,0.00
2013-3-6,39.2,36.6,35.1,29.7,14.7,8.2,73,41,30,29.15,29.06,18,5,19,0.00
2013-3-7,35.1,32.7,30.0,28.2,19.2,8.7,89,60,33,29.21,29.09,15,5,16,0.00
2013-3-8,37.4,32.0,28.0,26.4,19.6,7.3,89,64,30,29.32,29.12,0,0,0,0.00
2013-3-9,47.1,38.7,30.2,11.2,5.3,-1.5,42,26,17,29.47,29.32,10,3,12,0.00
2013-3-10,49.3,39.4,31.3,20.6,13.7,-0.9,57,36,19,29.53,29.41,7,2,7,0.00
2013-3-11,52.5,42.8,35.2,42.5,29.7,20.4,85,62,31,29.44,29.23,12,2,13,0.00
2013-3-12,53.2,48.8,39.2,52.4,47.0,32.0,97,94,72,29.23,28.85,10,2,12,1.26
2013-3-13,49.5,40.0,33.6,31.8,15.7,1.8,75,42,17,29.03,28.94,8,1,9,0.04
2013-3-14,34.2,31.8,28.6,17.4,-0.8,-6.8,52,25,20,29.06,28.97,11,2,11,0.00
2013-3-15,41.4,32.9,25.3,15.1,1.2,-8.8,41,26,18,29.09,28.85,8,1,9,0.00
2013-3-16,37.0,31.7,28.4,17.6,7.9,-2.6,58,38,19,29.06,28.91,7,1,7,0.00
2013-3-17,36.3,30.8,25.2,19.0,1.8,-7.6,64,31,19,29.44,29.06,8,2,8,0.00
2013-3-18,35.4,28.2,22.3,23.5,-1.1,-10.9,81,32,19,29.53,29.21,10,4,13,0.00
2013-3-19,37.2,32.8,28.6,31.5,27.4,9.9,92,81,40,29.21,28.85,12,3,14,0.24
2013-3-20,41.7,33.0,25.7,10.7,4.2,-2.7,47,31,18,29.00,28.91,8,0,10,0.04
2013-3-21,36.9,31.9,28.0,9.0,1.4,-5.6,40,28,19,28.97,28.76,8,2,8,0.00
2013-3-22,40.8,31.6,23.4,10.6,2.2,-3.5,42,29,21,29.00,28.85,7,1,10,0.00
2013-3-23,44.6,35.4,29.7,8.1,4.5,-1.8,35,27,20,29.06,28.94,7,2,13,0.00
2013-3-24,42.8,35.3,27.1,8.0,4.6,-0.4,39,28,20,29.09,28.88,8,2,9,0.00
2013-3-25,43.3,37.7,33.1,12.4,8.2,3.8,40,29,20,28.88,28.61,13,4,14,0.00
2013-3-26,42.8,37.3,34.7,12.2,7.4,3.6,37,29,20,29.00,28.73,6,3,7,0.00
2013-3-27,51.8,40.0,30.7,12.6,8.5,3.8,40,28,18,29.09,29.00,7,1,10,0.00
2013-3-28,47.3,39.9,32.9,16.2,13.3,10.1,47,34,24,29.23,29.09,10,2,11,0.00
2013-3-29,55.4,44.2,34.7,14.5,10.3,5.3,39,26,17,29.26,29.18,7,1,8,0.00
2013-3-30,55.9,44.8,33.6,16.4,10.1,1.8,46,26,16,29.29,29.21,7,1,8,0.00
2013-3-31,55.9,45.7,36.1,38.5,10.8,-2.1,84,27,17,29.29,28.85,13,3,15,0.08
2013-4-1,61.2,44.5,32.7,48.6,27.1,-3.8,95,59,18,29.03,28.76,10,1,10,0.04
2013-4-2,42.1,34.4,27.7,4.2,-0.5,-5.1,33,23,18,29.21,29.03,8,2,12,0.00
2013-4-3,46.4,35.3,28.2,4.0,-2.3,-6.8,23,20,17,29.41,29.18,10,2,10,0.00
2013-4-4,52.2,39.5,27.3,19.0,3.2,-6.8,47,22,16,29.50,29.21,10,1,10,0.00
2013-4-5,60.1,46.0,36.3,19.0,9.5,-1.5,47,24,16,29.21,28.88,9,2,9,0.00
2013-4-6,47.8,39.1,30.7,5.4,0.8,-5.3,31,20,16,29.44,29.12,10,2,12,0.00
2013-4-7,56.7,41.9,33.8,33.4,15.3,4.9,66,37,17,29.44,29.15,10,2,12,0.00
2013-4-8,67.6,55.4,42.3,39.8,25.1,14.4,83,39,15,29.23,29.15,7,2,8,0.00
2013-4-9,77.4,62.6,48.7,49.9,26.8,13.6,81,33,13,29.18,29.09,10,2,10,0.00
2013-4-10,60.6,58.6,50.7,42.8,18.9,13.6,74,24,16,29.09,29.00,18,3,20,0.04
2013-4-13,55.0,50.2,45.3,18.4,15.6,10.6,33,25,17,29.12,29.00,8,0,8,0.00
2013-4-14,56.7,47.2,40.5,21.1,12.3,3.9,39,25,17,29.38,29.12,10,2,10,0.00
2013-4-15,58.6,47.3,37.6,18.0,11.4,5.6,41,24,17,29.53,29.38,9,2,12,0.00
2013-4-16,65.8,52.7,41.2,49.6,31.6,17.2,88,47,23,29.53,29.26,8,2,13,0.00
2013-4-17,63.7,56.1,49.1,54.4,24.6,9.8,97,38,16,29.44,29.29,9,3,9,0.00
2013-4-18,62.1,52.9,43.7,43.2,23.0,8.2,72,36,16,29.50,29.26,11,4,15,0.00
2013-4-19,71.4,59.7,52.0,64.6,52.1,43.2,97,80,42,29.26,28.88,10,2,11,0.00
2013-4-20,57.9,50.2,40.6,47.7,17.3,3.8,97,34,17,29.44,28.97,8,2,11,0.00
2013-4-21,49.6,41.9,33.1,9.1,2.9,-2.4,32,20,16,29.77,29.44,8,3,10,0.00
2013-4-22,57.6,45.2,36.3,23.7,14.2,0.8,54,31,16,29.83,29.65,12,4,14,0.00
2013-4-23,50.0,41.9,35.6,32.7,25.5,18.5,71,52,38,29.65,29.26,10,3,10,0.00
2013-4-24,70.0,53.6,38.1,44.3,30.9,17.8,91,50,14,29.26,29.00,9,2,12,0.00
2013-4-25,52.7,51.7,50.7,49.2,45.7,31.8,89,81,48,29.09,29.00,7,1,10,0.00
2013-4-27,55.0,52.1,50.2,11.7,10.1,8.9,19,18,17,29.47,29.47,4,0,5,0.00
2013-4-28,73.0,56.8,44.2,27.1,17.0,9.2,41,22,13,29.47,29.35,8,2,10,0.00
2013-4-29,56.8,53.1,50.2,41.3,29.3,9.5,66,41,18,29.41,29.35,7,2,8,0.00
2013-4-30,50.7,50.5,50.2,30.2,27.6,25.6,46,41,38,29.38,29.38,4,0,5,0.00
2013-5-2,77.0,62.6,47.5,35.0,23.4,15.1,60,26,13,29.62,29.47,7,1,10,0.00
2013-5-3,68.5,57.6,48.6,30.5,18.4,10.9,49,23,15,29.62,29.50,11,3,11,0.00
2013-5-4,73.4,57.3,45.7,42.5,27.6,15.1,83,39,13,29.53,29.38,9,2,10,0.00
2013-5-5,68.2,53.4,43.0,35.2,24.9,13.2,70,39,15,29.47,29.35,7,2,9,0.00
2013-5-6,70.5,55.5,42.6,43.4,33.7,21.9,84,49,17,29.44,29.29,7,1,9,0.00
2013-5-7,77.2,62.5,50.0,51.0,38.0,20.7,84,47,13,29.35,29.26,8,2,11,0.00
2013-5-8,63.1,59.8,55.6,62.3,57.3,50.4,97,92,71,29.29,29.18,10,2,13,0.51
2013-5-9,61.7,57.0,53.1,60.7,55.8,52.2,97,96,85,29.18,29.06,5,0,6,0.47
2013-5-10,79.2,65.4,54.1,62.3,42.5,23.5,97,54,15,29.18,29.06,7,1,7,0.00
2013-5-11,66.4,61.9,58.8,65.3,59.1,46.9,97,91,61,29.09,28.88,9,0,9,0.24
2013-5-12,68.5,58.1,46.9,59.8,34.0,7.4,97,52,15,29.06,28.82,7,1,10,0.00
2013-5-13,58.1,48.1,40.5,23.0,14.3,8.6,47,27,17,29.23,29.06,7,1,8,0.00
2013-5-14,62.2,49.0,36.9,25.5,15.1,4.0,59,29,16,29.26,29.18,8,0,8,0.00
2013-5-15,63.1,53.4,42.4,48.8,29.9,5.9,74,42,19,29.23,28.85,12,1,12,0.00
2013-5-16,82.6,67.1,55.2,51.8,29.3,15.1,86,32,11,29.00,28.88,8,1,9,0.00
2013-5-17,70.3,60.6,53.6,29.1,20.3,13.2,38,22,14,29.38,29.03,6,1,7,0.00
2013-5-18,73.2,59.8,51.6,47.4,27.7,16.4,74,32,13,29.47,29.38,7,1,8,0.00
2013-5-19,57.6,55.9,54.1,56.5,53.2,45.1,97,91,69,29.50,29.35,8,1,9,0.20
2013-5-20,77.9,64.9,55.9,70.0,56.3,47.5,97,78,36,29.35,29.15,6,0,7,0.00
2013-5-21,88.2,73.8,63.5,70.7,57.1,41.3,97,63,20,29.18,29.03,8,1,8,0.00
2013-5-22,74.7,67.5,59.0,65.8,59.9,53.4,97,78,54,29.12,29.03,10,1,10,0.00
2013-5-23,73.9,66.6,64.6,73.0,65.5,62.8,97,96,79,29.06,28.94,7,0,8,3.15
2013-5-24,64.6,55.3,43.0,63.7,54.2,41.1,97,96,84,29.09,28.85,8,1,10,0.43
2013-5-25,48.7,44.7,41.7,47.4,41.1,33.5,97,88,61,29.12,29.03,9,3,10,0.98
2013-5-26,63.7,51.8,42.4,40.5,28.1,14.9,89,45,18,29.35,29.06,11,1,11,0.00
2013-5-27,75.0,59.6,45.7,28.1,20.9,13.8,47,25,13,29.38,29.29,5,0,9,0.00
2013-5-28,69.1,58.6,53.8,55.6,35.7,14.6,97,51,15,29.38,29.29,6,0,7,0.20
2013-5-29,76.3,65.3,56.5,70.7,58.7,54.3,97,82,47,29.29,29.18,6,0,7,0.00
2013-5-30,90.3,76.8,66.4,69.1,52.2,38.9,97,49,17,29.29,29.23,4,0,6,0.00
2013-5-31,92.8,78.0,67.5,61.8,46.2,35.3,70,35,14,29.32,29.18,6,0,8,0.00
2013-6-1,91.4,77.3,67.3,63.2,50.3,38.3,77,43,17,29.21,29.09,7,0,8,0.00
2013-6-2,89.2,76.7,67.6,69.8,54.7,39.8,97,53,19,29.09,28.94,7,1,10,0.00
2013-6-3,79.2,69.6,60.8,69.6,57.0,36.2,97,68,30,29.09,29.00,5,0,6,0.47
2013-6-4,74.7,62.6,52.5,39.9,26.2,16.7,50,28,13,29.29,29.09,7,0,7,0.00
2013-6-5,75.7,63.5,54.3,31.2,25.5,15.3,38,25,13,29.38,29.29,7,0,7,0.00
2013-6-6,73.6,60.4,53.1,57.3,41.9,27.2,97,56,21,29.32,29.21,10,2,12,0.12
2013-6-7,60.3,58.2,55.4,59.4,57.4,54.4,97,97,97,29.21,28.88,10,3,12,2.09
2013-6-8,75.9,63.7,54.3,64.4,53.2,43.3,97,73,34,29.23,28.79,6,1,9,0.55
2013-6-9,80.2,68.2,58.1,59.0,43.4,26.3,93,48,14,29.35,29.23,6,0,7,0.00
2013-6-10,70.9,63.3,59.2,64.1,56.5,44.0,97,80,49,29.35,29.06,12,2,12,1.14
2013-6-11,80.8,66.3,59.2,72.0,58.8,45.7,97,80,32,29.06,28.79,9,1,10,0.24
2013-6-12,68.0,63.8,60.6,51.0,44.1,37.4,70,50,34,29.03,28.85,5,0,7,0.00
2013-6-13,62.1,57.6,53.2,58.0,52.9,41.0,97,86,47,29.03,28.73,12,2,14,1.42
2013-6-14,71.8,59.0,50.7,54.8,48.2,37.2,97,72,32,29.06,28.76,7,1,8,0.59
2013-6-15,63.5,58.7,57.2,53.4,49.7,33.9,87,75,33,29.18,29.06,0,0,0,0.00
2013-6-16,78.3,67.5,59.0,57.2,41.7,28.1,71,41,18,29.18,28.94,6,0,10,0.00
2013-6-17,85.6,72.5,64.0,62.8,48.0,32.3,87,48,19,29.12,29.03,7,0,7,0.00
2013-6-18,82.8,68.9,62.4,64.4,55.3,38.0,97,67,22,29.09,29.03,7,0,9,0.00
2013-6-19,75.7,64.9,57.2,60.7,38.5,18.1,94,45,13,29.35,29.09,7,0,7,0.00
2013-6-20,80.6,66.9,55.6,46.3,36.0,24.3,70,35,14,29.44,29.35,6,0,7,0.00
2013-6-21,83.8,69.7,58.6,49.5,42.0,35.6,69,40,19,29.47,29.41,6,0,9,0.00
2013-6-22,84.4,70.8,60.3,51.8,42.5,31.8,66,39,16,29.44,29.32,7,0,7,0.00
2013-6-23,90.3,74.8,63.1,67.2,51.8,38.5,87,50,17,29.38,29.23,7,0,9,0.00
2013-6-24,91.9,77.1,67.1,74.8,60.3,43.5,97,66,19,29.26,29.12,7,0,10,1.34
2013-6-25,88.9,76.1,66.4,72.9,60.7,45.6,97,65,28,29.21,29.00,6,0,7,0.00
2013-6-26,78.4,73.9,70.0,70.3,62.5,52.0,97,69,42,29.03,28.97,6,0,6,0.08
2013-6-27,76.3,69.2,67.3,75.2,68.3,66.4,97,97,97,29.03,28.97,4,0,5,0.00
2013-7-1,73.8,71.7,69.4,72.9,70.8,68.6,97,97,97,29.23,29.15,7,0,7,0.28
2013-7-2,79.2,73.4,70.5,76.8,70.7,45.1,97,92,52,29.35,29.23,7,0,8,0.20
2013-7-3,85.1,74.6,69.4,77.9,67.8,56.0,97,82,41,29.44,29.35,5,0,8,0.00
2013-7-4,88.5,78.5,73.0,77.5,64.7,50.8,97,67,30,29.44,29.35,7,0,7,0.00
2013-7-5,91.2,79.6,71.2,74.3,60.3,46.3,97,56,25,29.41,29.26,6,0,8,0.00
2013-7-6,89.8,80.3,73.2,73.6,61.9,47.8,94,57,27,29.32,29.23,5,0,6,0.00
2013-7-7,91.9,80.9,74.8,78.2,65.0,46.3,97,63,25,29.26,29.12,6,0,7,0.08
2013-7-8,88.7,77.7,69.6,67.6,55.3,42.4,85,49,20,29.23,29.15,5,0,6,0.00
2013-7-9,87.8,75.7,68.7,74.3,62.2,42.3,97,67,22,29.26,29.21,4,0,6,0.20
2013-7-10,82.4,75.3,70.5,76.4,70.5,60.8,97,87,52,29.21,29.00,5,0,8,0.12
2013-7-11,80.8,74.2,69.3,74.2,65.1,49.8,97,76,41,29.15,29.00,4,0,6,0.04
2013-7-12,79.5,71.8,63.9,61.8,52.3,42.8,93,52,30,29.32,29.12,11,2,12,0.12
2013-7-13,75.7,69.6,63.5,73.6,67.1,60.9,97,92,78,29.47,29.32,9,1,11,0.08
2013-7-14,88.9,78.1,72.0,77.5,66.4,50.5,97,73,28,29.53,29.41,5,0,7,0.00
2013-7-15,91.9,80.5,73.2,69.2,61.3,49.4,81,55,27,29.44,29.35,4,0,7,0.00
2013-7-16,90.7,80.0,73.0,66.0,51.4,40.2,73,39,18,29.41,29.32,5,0,6,0.00
2013-7-17,93.2,81.7,75.0,62.3,52.9,40.5,61,39,17,29.41,29.26,4,0,6,0.00
2013-7-18,94.3,83.0,74.8,69.8,57.2,42.7,79,45,17,29.26,29.18,4,0,5,0.00
2013-7-19,96.4,84.9,76.6,70.2,57.3,44.1,76,42,17,29.18,29.00,7,0,8,0.00
2013-7-20,92.8,81.1,75.6,69.7,60.5,44.3,77,53,19,29.06,28.94,7,0,8,0.00
2013-7-21,84.7,75.2,65.3,69.4,50.4,36.3,97,46,19,29.18,29.06,7,0,7,0.16
2013-7-22,81.1,73.2,68.0,75.4,66.3,50.2,97,81,46,29.18,29.03,6,0,7,0.12
2013-7-23,84.4,74.2,70.9,74.5,68.6,57.7,97,84,44,29.00,28.76,7,0,7,1.42
2013-7-24,80.2,53.2,0.0,66.0,39.6,0.0,74,39,38,29.15,28.82,5,0,7,0.00
2013-7-25,66.6,62.7,58.5,51.6,43.4,33.6,62,50,37,29.26,29.15,7,0,8,0.00
2013-7-26,76.5,52.7,0.0,54.5,38.7,0.0,62,40,31,29.23,29.18,6,0,7,0.00
2013-7-27,82.9,72.6,67.8,55.0,48.2,32.0,63,45,19,29.26,29.18,7,1,9,0.00
2013-7-28,77.5,52.1,0.0,60.2,40.6,0.0,64,42,41,29.21,29.12,8,0,9,0.16
2013-7-29,83.3,73.2,64.9,61.3,51.0,38.4,65,48,21,29.29,29.15,6,0,6,0.00
2013-7-30,79.7,68.7,60.6,52.3,44.4,33.3,71,44,20,29.35,29.29,6,0,7,0.00
2013-7-31,81.3,69.9,61.7,54.8,44.6,27.9,69,44,15,29.35,29.23,4,0,6,0.00
2013-8-1,74.7,52.7,0.0,66.0,48.7,0.0,97,67,45,29.23,29.03,7,1,9,0.39
2013-8-2,81.0,70.8,66.7,65.9,56.1,37.9,97,66,24,29.09,29.00,6,0,7,0.00
2013-8-3,73.8,66.3,63.0,61.5,54.6,47.8,72,66,53,29.09,29.03,6,0,7,0.08
2013-8-4,79.3,67.8,59.5,59.0,50.0,33.3,87,58,20,29.15,29.03,5,0,9,0.04
2013-8-5,74.8,64.5,55.8,50.7,36.9,21.9,80,41,15,29.23,29.15,5,0,7,0.00
2013-8-6,79.3,67.6,58.6,49.2,36.1,26.6,60,33,17,29.32,29.23,7,1,8,0.00
2013-8-7,75.4,67.5,60.6,59.1,53.6,0.0,84,63,34,29.35,29.26,8,1,9,0.00
2013-8-8,77.4,72.6,68.9,66.6,61.7,59.1,72,69,63,29.26,29.21,7,1,9,0.28
2013-8-9,77.7,59.5,0.0,76.4,56.7,0.0,97,70,59,29.21,29.00,7,1,10,1.34
2013-8-10,79.9,74.5,64.4,76.4,57.1,37.4,97,60,30,29.23,29.06,5,0,6,0.00
2013-8-11,78.1,67.7,58.3,52.5,40.3,23.8,60,39,15,29.32,29.21,5,0,7,0.00
2013-8-12,79.5,70.4,64.2,63.3,47.9,26.0,97,51,15,29.23,29.12,5,0,7,0.00
2013-8-13,72.5,34.5,0.0,64.4,30.6,0.0,82,38,65,29.15,28.91,7,0,7,0.28
2013-8-14,73.0,65.3,56.5,64.1,42.5,29.0,82,47,21,29.21,28.94,7,1,12,0.00
2013-8-15,74.8,63.7,54.3,47.6,38.5,24.2,73,43,16,29.32,29.23,6,0,6,0.00
2013-8-16,76.8,66.3,58.1,52.8,38.8,29.3,73,39,20,29.38,29.29,4,0,5,0.00
2013-8-17,78.8,68.2,59.4,56.5,42.9,31.1,80,43,20,29.47,29.38,7,0,7,0.00
2013-8-18,76.1,68.0,63.0,56.8,50.5,42.2,70,55,34,29.44,29.32,4,0,5,0.00
2013-8-19,78.6,69.4,62.6,59.1,52.4,41.6,73,57,30,29.32,29.21,4,0,4,0.00
2013-8-20,82.6,73.4,68.9,59.1,49.2,34.8,71,46,19,29.32,29.23,4,0,6,0.00
2013-8-21,83.8,73.7,64.8,61.9,48.9,35.8,84,46,19,29.38,29.23,6,0,7,0.00
2013-8-22,74.5,70.6,68.7,67.9,60.8,49.4,80,72,48,29.26,29.06,5,0,7,0.20
2013-8-23,78.1,70.7,63.9,65.8,47.9,30.1,83,49,18,29.32,29.06,7,1,7,0.00
2013-8-24,74.8,66.1,58.1,42.5,35.2,23.2,49,33,15,29.53,29.32,6,0,7,0.00
2013-8-25,78.8,67.9,58.6,55.8,39.5,24.0,82,41,15,29.56,29.41,5,0,7,0.00
2013-8-26,73.4,68.6,63.9,63.5,54.2,39.7,79,61,38,29.41,29.12,4,0,5,0.12
2013-8-27,78.4,59.4,0.0,71.6,50.8,0.0,97,57,49,29.12,29.00,5,0,7,0.59
2013-8-28,82.6,74.2,68.2,70.5,62.6,49.3,97,71,32,29.12,29.06,6,0,7,0.55
2013-8-29,73.9,47.4,0.0,67.3,40.5,0.0,97,49,47,29.23,29.12,7,0,8,0.00
2013-8-30,79.0,71.0,67.1,67.3,61.8,51.5,90,75,40,29.23,29.06,6,0,6,0.00
2013-8-31,79.9,56.2,0.0,70.6,50.3,0.0,89,58,55,29.06,29.00,6,0,7,0.00
2013-9-1,80.6,75.8,72.3,70.7,68.5,58.1,94,79,49,29.06,29.00,5,0,6,0.04
2013-9-2,77.0,33.6,0.0,70.8,32.2,0.0,94,41,69,29.03,28.91,6,0,7,0.59
2013-9-3,73.2,70.5,61.3,70.8,64.5,52.2,92,82,59,29.06,28.91,5,0,5,0.35
2013-9-4,73.6,66.1,58.5,58.4,48.1,35.5,91,56,26,29.18,29.06,6,0,7,0.00
2013-9-5,72.3,64.6,56.8,54.7,42.0,26.0,70,46,23,29.32,29.09,4,0,6,0.00
2013-9-6,66.0,57.9,50.9,37.6,28.2,17.9,57,34,17,29.44,29.32,6,0,7,0.00
2013-9-7,71.8,62.9,52.5,43.5,34.1,28.4,65,35,21,29.29,29.09,5,0,7,0.00
2013-9-8,76.5,66.2,57.4,50.2,39.6,26.8,61,39,23,29.29,29.00,5,0,7,0.00
2013-9-9,67.6,59.6,50.2,49.4,34.2,19.5,70,41,17,29.41,29.26,7,1,8,0.00
2013-9-10,76.1,67.5,59.4,70.2,64.0,50.0,97,89,71,29.35,29.23,7,0,9,0.12
2013-9-11,87.1,78.8,73.4,70.1,66.7,59.1,85,68,41,29.29,29.18,6,0,8,0.00
2013-9-12,81.9,73.6,70.5,72.8,68.2,59.6,97,84,51,29.18,28.88,9,0,9,0.28
2013-9-13,73.9,45.8,0.0,71.2,40.1,0.0,97,53,48,29.03,28.82,7,0,7,0.12
2013-9-14,63.1,56.4,50.2,50.3,41.0,33.4,84,58,35,29.29,29.03,5,0,6,0.00
2013-9-15,64.2,56.6,47.5,43.5,36.6,25.1,82,51,23,29.38,29.26,5,0,7,0.00
2013-9-16,66.4,59.4,51.3,53.3,44.7,32.3,84,60,34,29.44,29.21,6,0,6,0.00
2013-9-17,58.8,52.4,45.1,40.3,29.2,18.4,66,43,22,29.62,29.44,8,1,9,0.00
2013-9-18,64.6,56.4,47.1,42.8,32.1,19.3,76,43,18,29.53,29.35,6,0,6,0.00
2013-9-19,69.1,60.4,50.9,48.5,39.7,28.1,83,51,22,29.35,29.26,4,0,7,0.00
2013-9-20,73.0,62.9,54.0,59.5,46.6,30.8,94,60,22,29.26,29.18,7,0,8,0.00
2013-9-21,71.6,63.7,58.3,63.7,56.9,50.7,87,79,48,29.21,28.85,9,1,15,0.59
2013-9-22,68.0,45.4,0.0,63.7,32.2,0.0,86,40,33,29.09,28.82,6,0,7,0.79
2013-9-23,59.4,53.1,46.6,36.2,30.4,21.4,65,43,24,29.23,29.09,7,0,7,0.00
2013-9-24,62.6,53.8,43.2,40.4,33.3,24.0,74,48,25,29.23,29.06,6,0,8,0.00
2013-9-25,65.1,57.5,48.6,43.6,34.9,25.1,61,44,23,29.15,29.09,4,0,5,0.00
2013-9-26,65.3,59.0,54.3,52.1,43.6,35.5,83,58,36,29.29,29.15,7,0,8,0.00
2013-9-27,62.8,57.0,50.2,50.0,44.5,36.2,93,65,38,29.44,29.29,5,0,8,0.00
2013-9-28,67.5,59.8,51.8,51.2,41.3,28.4,93,55,24,29.50,29.41,6,0,7,0.00
2013-9-29,67.3,58.2,53.6,50.3,44.0,35.2,85,62,32,29.41,29.26,6,0,7,0.00
2013-9-30,66.9,59.1,50.5,52.4,42.5,31.7,92,58,27,29.26,29.15,4,0,5,0.00
2013-10-1,70.7,62.5,53.8,51.8,46.2,36.3,83,58,30,29.18,29.09,4,0,4,0.00
2013-10-2,75.0,65.9,58.6,52.0,49.5,43.8,78,57,37,29.21,29.12,6,0,6,0.00
2013-10-3,70.7,65.1,57.2,49.4,40.2,29.7,66,42,22,29.32,29.21,5,0,6,0.00
2013-10-4,76.5,48.5,0.0,59.7,38.2,0.0,73,41,44,29.26,29.18,6,0,6,0.00
2013-10-5,71.2,71.2,71.2,59.3,59.3,59.3,66,66,66,29.29,29.23,5,0,6,0.00
2013-10-6,71.2,11.4,0.0,59.3,9.5,0.0,66,11,66,29.29,29.23,8,2,10,0.04
2013-10-7,0.0,0.0,0.0,0.0,0.0,0.0,0,0,100,29.23,28.94,9,2,12,0.51
2013-10-8,60.1,47.4,0.0,50.0,30.5,0.0,94,45,26,29.53,29.15,6,0,7,0.00
2013-10-9,58.8,53.2,48.0,37.6,30.3,21.8,57,43,24,29.59,29.50,9,1,12,0.00
2013-10-10,58.5,53.4,48.7,46.7,42.4,36.5,73,66,58,29.50,29.29,7,0,9,0.00
2013-10-11,66.0,60.5,54.7,49.8,45.6,31.4,77,59,33,29.29,29.23,7,0,9,0.00
2013-10-12,67.5,60.3,54.1,46.9,34.6,24.4,65,40,20,29.50,29.29,11,2,14,0.00
2013-10-13,61.2,55.6,50.4,46.8,40.4,32.4,86,59,35,29.59,29.47,7,1,12,0.00
2013-10-14,59.9,53.6,47.3,48.3,41.0,31.7,91,65,35,29.53,29.41,4,0,6,0.00
2013-10-15,68.0,58.1,50.7,52.3,38.9,20.2,92,54,24,29.44,29.29,6,1,7,0.00
2013-10-16,61.7,56.3,51.3,54.1,43.7,35.4,87,63,48,29.29,29.12,5,0,6,0.00
2013-10-17,68.4,61.4,57.9,58.0,53.3,40.9,92,78,37,29.09,28.88,6,0,8,0.00
2013-10-18,62.1,47.9,0.0,58.0,28.2,0.0,87,36,24,29.15,28.85,7,1,11,0.00
2013-10-19,61.9,54.3,46.9,52.2,31.2,17.8,95,44,18,29.15,28.91,7,1,10,0.12
2013-10-20,56.3,51.1,45.0,52.8,32.7,17.7,97,56,22,29.23,28.91,6,0,8,0.00
2013-10-21,61.0,52.3,45.3,35.4,24.7,13.4,59,37,16,29.32,29.15,7,0,8,0.00
2013-10-22,59.5,52.2,45.9,50.8,38.6,29.3,94,62,40,29.15,28.91,6,0,7,0.00
2013-10-23,51.8,45.5,40.1,36.3,25.8,16.5,73,48,26,29.00,28.79,6,0,7,0.00
2013-10-24,51.4,42.7,36.3,29.0,19.1,8.0,69,42,18,29.15,28.91,6,1,8,0.00
2013-10-25,49.3,42.2,36.3,21.0,16.0,9.5,53,35,21,29.38,29.15,6,1,7,0.00
2013-10-26,51.3,44.1,35.8,24.0,15.3,6.5,53,33,18,29.35,29.06,8,1,11,0.00
2013-10-27,54.9,46.9,41.0,20.7,15.8,9.5,39,29,18,29.26,29.00,7,0,9,0.00
2013-10-28,56.3,47.1,38.8,20.7,16.8,12.8,44,30,19,29.50,29.26,6,0,7,0.00
2013-10-29,48.6,43.1,39.2,15.6,12.7,9.4,36,29,21,29.59,29.50,6,0,6,0.00
2013-10-30,54.7,46.2,38.8,43.0,25.3,10.1,85,46,30,29.50,29.35,4,0,5,0.00
2013-10-31,47.5,47.0,43.7,46.4,45.4,40.3,96,94,85,29.41,29.00,6,0,8,0.08
2013-11-1,65.1,38.1,0.0,52.5,29.3,0.0,96,43,34,28.97,28.73,9,2,15,0.12
2013-11-2,62.4,54.0,47.8,47.5,33.5,21.9,77,48,21,28.97,28.79,7,0,7,0.00
2013-11-3,48.2,40.2,32.0,37.2,18.8,0.3,73,43,25,29.59,28.94,9,3,10,0.00
2013-11-4,40.6,35.2,29.5,6.9,1.7,-2.0,37,24,18,29.80,29.59,7,2,9,0.00
2013-11-5,50.9,41.8,33.4,28.1,16.1,-0.6,55,36,22,29.80,29.65,7,1,8,0.00
2013-11-6,57.9,49.5,42.1,49.5,34.7,28.3,92,59,35,29.65,29.23,9,1,9,0.00
2013-11-7,52.9,19.0,0.0,52.0,13.8,0.0,97,27,29,29.23,28.91,8,1,11,0.08
2013-11-8,46.0,39.4,35.4,20.2,13.3,5.7,50,35,20,29.32,29.06,6,1,8,0.00
2013-11-9,45.3,40.3,36.1,16.2,11.2,5.6,40,30,20,29.41,29.15,6,0,7,0.00
2013-11-10,57.0,44.9,39.6,26.3,18.7,10.7,49,36,17,29.18,28.97,9,1,10,0.00
2013-11-11,49.1,44.6,37.4,15.0,11.3,7.1,33,26,19,29.32,29.12,7,1,10,0.00
2013-11-12,47.5,34.3,25.7,28.6,12.0,0.8,86,42,25,29.41,29.09,7,1,8,0.00
2013-11-13,33.4,28.7,23.5,6.5,-0.6,-5.3,43,28,20,29.47,29.38,7,1,8,0.00
2013-11-14,47.8,37.4,27.9,9.0,3.4,-1.5,42,25,16,29.38,29.29,7,0,9,0.00
2013-11-15,53.8,43.3,34.5,11.3,5.4,-1.1,30,21,18,29.38,29.32,7,0,7,0.00
2013-11-16,56.7,47.5,41.5,41.3,20.5,3.8,84,37,19,29.47,29.38,4,0,7,0.00
2013-11-17,46.2,46.1,45.7,44.3,44.0,41.3,93,92,84,29.44,28.97,7,1,9,0.04
2013-11-18,60.3,50.9,44.6,44.5,25.3,5.7,93,48,16,28.97,28.76,9,1,13,0.20
2013-11-19,47.1,39.2,30.4,12.9,7.2,2.1,36,27,19,29.50,28.91,11,3,12,0.00
2013-11-20,37.8,31.4,25.7,7.2,0.7,-4.4,40,27,19,29.74,29.50,10,3,11,0.00
2013-11-21,46.8,37.7,27.9,25.0,10.3,-2.2,49,33,19,29.77,29.56,7,1,7,0.00
2013-11-22,50.7,46.7,42.8,49.3,39.9,24.5,96,79,48,29.53,29.06,5,0,8,0.12
2013-11-23,49.3,37.5,25.2,48.2,11.3,-3.3,96,36,20,29.18,29.06,7,2,10,0.00
2013-11-24,25.3,22.4,19.6,5.3,-8.7,-12.5,42,24,22,29.44,29.12,14,3,16,0.00
2013-11-25,30.9,25.2,17.8,-0.9,-4.9,-11.4,40,27,20,29.56,29.44,9,0,9,0.00
2013-11-26,38.3,33.0,29.5,37.5,9.8,-3.7,97,43,23,29.47,29.03,12,1,12,0.35
2013-11-27,47.1,24.6,0.0,46.3,23.1,0.0,97,59,43,29.00,28.50,12,1,13,21.69
2013-11-28,31.6,27.6,25.0,11.2,0.4,-6.8,45,31,20,29.59,28.82,0,0,0,8.11
2013-11-29,33.6,28.4,23.9,7.3,3.2,-1.0,43,34,25,29.85,29.59,0,0,0,1.81
2013-11-30,31.5,26.3,19.0,9.9,0.1,-8.5,45,33,20,29.88,29.53,0,0,0,1.14
2013-12-1,45.9,37.5,31.3,20.8,15.7,9.8,54,41,29,29.53,29.18,0,0,0,0.12
2013-12-2,41.7,36.8,34.5,24.1,19.3,13.4,65,49,40,29.18,29.06,0,0,0,0.04
2013-12-3,47.5,38.0,32.7,35.2,25.2,18.2,93,63,32,29.15,29.03,0,0,0,0.12
2013-12-4,47.7,40.3,33.3,23.6,19.6,16.6,55,44,31,29.32,29.15,0,0,0,0.31
2013-12-5,53.1,49.0,42.8,52.0,45.3,23.5,97,88,46,29.32,29.12,0,0,0,0.04
2013-12-6,52.5,52.5,52.5,51.7,51.7,51.7,97,97,97,29.29,29.06,0,0,0,10.12
2013-12-7,52.5,24.7,0.0,51.7,15.2,0.0,97,40,39,29.65,29.23,0,0,0,0.94
2013-12-8,29.5,26.9,22.8,13.7,4.9,2.0,56,39,32,29.71,29.53,0,0,0,0.00
2013-12-9,33.4,31.0,26.8,32.7,28.3,13.7,97,90,56,29.53,29.12,0,0,0,0.00
2013-12-10,33.4,31.1,23.5,32.7,26.4,4.7,97,84,45,29.23,29.00,0,0,0,0.00
2013-12-11,30.6,25.2,20.3,4.8,3.2,0.8,46,38,30,29.41,29.23,0,0,0,1.14
2013-12-12,25.0,20.2,17.2,3.2,-5.0,-11.4,43,32,22,29.44,29.23,0,0,0,2.83
2013-12-13,30.4,24.2,17.4,5.3,-3.1,-10.1,43,30,23,29.47,29.21,0,0,0,7.32
2013-12-14,21.7,18.5,14.4,15.7,3.2,-4.0,80,52,33,29.62,29.03,0,0,0,10.98
2013-12-15,34.9,28.4,21.0,29.8,18.5,7.4,97,69,42,29.03,28.67,0,0,0,21.46
2013-12-16,28.4,23.3,17.4,7.9,-3.9,-10.1,43,30,21,29.35,28.94,0,0,0,13.27
2013-12-17,20.8,18.0,14.7,10.8,2.4,-8.4,65,50,33,29.35,29.09,0,0,0,3.31
2013-12-18,33.1,24.5,16.2,8.6,5.8,2.7,58,45,31,29.26,29.06,0,0,0,11.73
2013-12-19,39.7,32.2,22.5,14.6,9.1,4.7,49,38,26,29.29,29.15,0,0,0,1.30
2013-12-20,45.1,39.0,34.5,18.1,15.7,13.4,45,39,28,29.23,29.12,0,0,0,0.35
2013-12-21,49.6,43.8,38.3,44.2,33.3,17.8,93,68,41,29.15,29.06,0,0,0,1.89
2013-12-22,61.7,49.9,45.9,53.2,46.1,44.0,93,87,64,29.15,28.94,0,0,0,15.43
2013-12-23,55.9,8.5,0.0,53.1,7.9,0.0,92,15,68,29.29,29.09,0,0,0,6.57
2013-12-24,35.4,30.2,20.5,26.6,11.0,-3.9,74,45,30,29.44,29.23,0,0,0,22.40
2013-12-25,23.9,19.8,14.0,-2.0,-7.3,-11.5,38,29,22,29.62,29.44,0,0,0,6.22
2013-12-26,31.1,27.1,22.3,12.0,7.6,-2.4,50,43,33,29.56,29.26,0,0,0,0.20
2013-12-27,35.8,30.2,25.3,11.3,6.5,1.6,50,37,24,29.47,29.38,0,0,0,1.97
2013-12-28,43.3,36.1,28.4,11.5,9.5,7.1,46,34,23,29.41,29.21,0,0,0,0.87
2013-12-29,39.7,38.0,36.3,37.9,22.6,10.3,97,59,31,29.21,28.61,0,0,0,29.96
2013-12-30,38.5,31.4,16.7,36.5,16.5,-5.0,97,59,26,29.32,28.82,0,0,0,8.78
2013-12-31,28.0,21.2,14.9,11.1,-0.7,-9.0,52,38,25,29.38,29.18,0,0,0,2.99
2014-1-1,29.1,23.6,18.0,6.4,-2.8,-8.2,44,31,23,29.53,29.35,0,0,0,1.65
2014-1-2,24.8,19.6,8.2,8.6,4.9,-4.2,62,52,44,29.41,28.85,10,1,12,19.96